Hovedside
METAR-TAF:

METAR-TAF

Lufthavner :

Liverpool John Lennon lufthavn

Liverpool, England

breddegrad: 53-20N, lengdegrad: 002-51W, høyde over havet: 26 m

Gjeldene værobservasjon

Denne rapporten ble laget for 35 minutter siden, klokken 19:20 UTC
Vind 6 kt fra Nordvest, skiftende mellom Vest-nordvest og Nord
Temperatur 20°C
Luftfuktighet 73%
Trykk 1017 hPa
Sikt 10 km eller mer
Spredte skyer i en høyde av 4600 ft

METAR: EGGP 241920Z 32006KT 290V350 9999 SCT046 20/15 Q1017

Tid: 20:55 (19:55 UTC)

Varsel

Denne rapporten ble laget for 2 timer og 59 minutter siden, klokken 16:56 UTC
Varsel gyldig fra 24. klokken 18 UTC til 25. klokken 18 UTC
Vind 8 kt fra Nordvest
Sikt 10 km eller mer
Spredte skyer i en høyde av 4000 ft
Sannsynlighet 30%
fra 25. klokken 00 UTC til 25. klokken 09 UTC
Sikt: 8000 m

TAF: EGGP 241656Z 2418/2518 31008KT 9999 SCT040 PROB30 2500/2509 8000

Værobservasjoner og værvarsel for over 4000 flyplasser (METAR- og TAF-rapporter).

Tilgjengelige stasjoner er representert av de røde og gule prikkene på kartet.

Hold musepekeren over prikken for å se navnet på stasjonen.

Klikk så for å se værobservasjoner og -varsler.

For å forandre kartet kan du klikke på den grønne knappen med svart kryss for å zoome inn, på den grønne knappen med strek for å zoome ut, eller på de grønne pilene for å se tilstøtende kart.


METAR-TAF: